createdAt,value
2018-05-12T00:01:13.945Z,23.57
2018-05-12T00:03:42.297Z,24.90
2018-05-12T00:06:10.674Z,24.20
2018-05-12T00:08:38.226Z,24.37
2018-05-12T00:11:05.792Z,25.47
2018-05-12T00:13:33.379Z,25.00
2018-05-12T00:16:01.704Z,25.03
2018-05-12T00:18:29.290Z,24.40
2018-05-12T00:20:56.846Z,25.23
2018-05-12T00:23:24.430Z,24.33
2018-05-12T00:25:51.982Z,26.33
2018-05-12T00:28:19.538Z,24.80
2018-05-12T00:30:47.119Z,24.50
2018-05-12T00:33:15.429Z,26.23
2018-05-12T00:35:43.019Z,24.37
2018-05-12T00:38:10.569Z,24.00
2018-05-12T00:40:38.145Z,24.47
2018-05-12T00:43:05.809Z,25.17
2018-05-12T00:45:33.364Z,24.23
2018-05-12T00:48:00.965Z,24.40
2018-05-12T00:50:29.286Z,24.00
2018-05-12T00:52:56.860Z,24.30
2018-05-12T00:55:24.409Z,23.73
2018-05-12T00:57:51.978Z,24.23
2018-05-12T01:00:19.536Z,24.80
2018-05-12T01:02:47.110Z,23.93
2018-05-12T01:05:14.664Z,23.07
2018-05-12T01:07:42.213Z,25.17
2018-05-12T01:10:09.813Z,25.50
2018-05-12T01:12:38.130Z,31.73
2018-05-12T01:15:05.704Z,36.07
2018-05-12T01:17:33.264Z,32.43
2018-05-12T01:20:00.847Z,38.23
2018-05-12T01:22:28.403Z,35.10
2018-05-12T01:24:55.949Z,32.20
2018-05-12T01:27:23.534Z,31.23
2018-05-12T01:29:51.093Z,31.00
2018-05-12T01:32:18.680Z,30.57
2018-05-12T01:34:46.231Z,33.67
2018-05-12T01:37:14.573Z,29.80
2018-05-12T01:39:42.134Z,33.07
2018-05-12T01:42:09.697Z,32.80
2018-05-12T01:44:37.273Z,32.97
2018-05-12T01:47:05.586Z,33.27
2018-05-12T01:49:33.179Z,32.20
2018-05-12T01:52:00.737Z,32.90
2018-05-12T01:54:28.330Z,30.50
2018-05-12T01:56:56.664Z,31.17
2018-05-12T01:59:24.227Z,29.33
2018-05-12T02:01:51.805Z,26.57
2018-05-12T02:04:19.361Z,26.20
2018-05-12T02:06:46.956Z,24.23
2018-05-12T02:09:15.277Z,25.40
2018-05-12T02:11:42.858Z,23.90
2018-05-12T02:14:10.417Z,26.63
2018-05-12T02:16:37.977Z,26.57
2018-05-12T02:19:05.569Z,25.60
2018-05-12T02:21:33.886Z,26.27
2018-05-12T02:24:01.456Z,26.17
2018-05-12T02:26:29.000Z,26.10
2018-05-12T02:28:56.577Z,24.97
2018-05-12T02:31:24.134Z,25.43
2018-05-12T02:33:51.709Z,25.20
2018-05-12T02:36:19.288Z,24.87
2018-05-12T02:38:46.842Z,24.90
2018-05-12T02:41:14.422Z,24.13
2018-05-12T02:43:42.734Z,24.30
2018-05-12T02:46:10.309Z,25.80
2018-05-12T02:48:37.866Z,23.87
2018-05-12T02:51:05.414Z,25.07
2018-05-12T02:53:32.993Z,24.20
2018-05-12T02:56:00.542Z,24.90
2018-05-12T02:58:28.110Z,24.33
2018-05-12T03:00:56.422Z,24.37
2018-05-12T03:03:24.747Z,25.90
2018-05-12T03:05:52.322Z,24.30
2018-05-12T03:08:19.866Z,26.47
2018-05-12T03:10:47.449Z,25.73
2018-05-12T03:13:15.013Z,26.20
2018-05-12T03:15:42.601Z,26.57
2018-05-12T03:18:10.916Z,25.30
2018-05-12T03:20:38.481Z,25.00
2018-05-12T03:23:06.062Z,27.30
2018-05-12T03:25:33.621Z,26.60
2018-05-12T03:28:01.186Z,27.30
2018-05-12T03:30:28.734Z,26.90
2018-05-12T03:32:56.318Z,27.03
2018-05-12T03:35:23.871Z,28.30
2018-05-12T03:37:51.417Z,29.57
2018-05-12T03:40:19.010Z,28.17
2018-05-12T03:42:47.337Z,28.87
2018-05-12T03:45:14.913Z,30.47
2018-05-12T03:47:42.467Z,30.63
2018-05-12T03:50:10.041Z,29.43
2018-05-12T03:52:37.592Z,29.10
2018-05-12T03:55:05.145Z,29.40
2018-05-12T03:57:32.713Z,30.63
2018-05-12T04:00:00.312Z,29.67
2018-05-12T04:02:27.873Z,30.90
2018-05-12T04:05:08.030Z,29.50
2018-05-12T04:07:48.218Z,29.80
2018-05-12T04:13:17.277Z,30.20
2018-05-12T04:15:44.849Z,29.40
2018-05-12T04:18:13.177Z,28.00
2018-05-12T04:20:40.757Z,27.10
2018-05-12T04:23:08.314Z,27.87
2018-05-12T04:25:35.919Z,27.47
2018-05-12T04:28:04.245Z,26.90
2018-05-12T04:30:31.791Z,26.70
2018-05-12T04:32:59.369Z,26.47
2018-05-12T04:35:26.927Z,28.40
2018-05-12T04:37:54.515Z,30.50
2018-05-12T04:40:22.057Z,33.87
2018-05-12T04:42:50.462Z,36.60
2018-05-12T04:45:18.902Z,37.93
2018-05-12T04:47:47.465Z,33.77
2018-05-12T04:50:15.039Z,34.70
2018-05-12T04:52:45.856Z,35.87
2018-05-12T04:55:13.413Z,36.50
2018-05-12T04:57:40.987Z,38.47
2018-05-12T05:00:08.528Z,36.43
2018-05-12T05:02:36.106Z,36.10
2018-05-12T05:05:03.661Z,38.67
2018-05-12T05:07:31.202Z,37.90
2018-05-12T05:09:58.766Z,38.73
2018-05-12T05:12:26.898Z,41.20
2018-05-12T05:14:54.473Z,39.40
2018-05-12T05:17:22.793Z,38.33
2018-05-12T05:19:50.361Z,38.50
2018-05-12T05:22:18.512Z,38.03
2018-05-12T05:24:46.054Z,38.50
2018-05-12T05:27:13.911Z,40.87
2018-05-12T05:29:42.521Z,40.90
2018-05-12T05:32:10.496Z,41.43
2018-05-12T05:34:38.071Z,40.10
2018-05-12T05:37:06.381Z,42.50
2018-05-12T05:39:33.963Z,41.93
2018-05-12T05:42:01.552Z,41.90
2018-05-12T05:44:29.099Z,40.20
2018-05-12T05:46:59.540Z,41.43
2018-05-12T05:49:27.086Z,41.60
2018-05-12T05:51:54.677Z,40.23
2018-05-12T05:54:22.247Z,36.93
2018-05-12T05:56:50.690Z,39.13
2018-05-12T05:59:18.257Z,36.03
2018-05-12T06:01:45.815Z,35.40
2018-05-12T06:04:13.408Z,36.33
2018-05-12T06:06:40.962Z,33.97
2018-05-12T06:09:08.514Z,36.00
2018-05-12T06:11:36.105Z,34.17
2018-05-12T06:14:04.428Z,33.67
2018-05-12T06:16:32.007Z,33.83
2018-05-12T06:18:59.553Z,34.60
2018-05-12T06:21:27.106Z,34.77
2018-05-12T06:23:54.678Z,34.40
2018-05-12T06:26:22.233Z,34.17
2018-05-12T06:28:49.816Z,32.87
2018-05-12T06:31:17.371Z,33.97
2018-05-12T06:33:44.922Z,32.87
2018-05-12T06:36:12.501Z,35.73
2018-05-12T06:38:40.049Z,35.90
2018-05-12T06:41:08.401Z,34.67
2018-05-12T06:43:35.950Z,35.00
2018-05-12T06:46:03.513Z,35.63
2018-05-12T06:48:31.085Z,36.13
2018-05-12T06:50:58.632Z,37.27
2018-05-12T06:53:26.217Z,34.50
2018-05-12T06:55:53.775Z,35.00
2018-05-12T06:58:21.330Z,35.20
2018-05-12T07:00:48.901Z,35.10
2018-05-12T07:03:16.468Z,35.73
2018-05-12T07:05:44.055Z,33.10
2018-05-12T07:08:12.372Z,34.87
2018-05-12T07:10:39.923Z,35.10
2018-05-12T07:13:07.490Z,34.30
2018-05-12T07:15:35.044Z,35.53
2018-05-12T07:18:02.631Z,34.90
2018-05-12T07:20:30.181Z,35.63
2018-05-12T07:22:57.729Z,36.90
2018-05-12T07:25:25.299Z,36.43
2018-05-12T07:27:52.853Z,33.20
2018-05-12T07:30:20.436Z,34.10
2018-05-12T07:32:47.996Z,34.27
2018-05-12T07:35:15.554Z,36.80
2018-05-12T07:37:43.121Z,33.70
2018-05-12T07:40:10.677Z,34.40
2018-05-12T07:42:38.267Z,34.87
2018-05-12T07:45:06.574Z,31.80
2018-05-12T07:47:34.151Z,34.07
2018-05-12T07:50:01.726Z,33.87
2018-05-12T07:55:22.793Z,33.33
2018-05-12T07:57:54.504Z,31.87
2018-05-12T08:00:22.117Z,32.97
2018-05-12T08:02:50.241Z,32.47
2018-05-12T08:05:32.425Z,31.77
2018-05-12T08:08:00.001Z,32.37
2018-05-12T08:10:27.557Z,29.97
2018-05-12T08:12:58.605Z,32.13
2018-05-12T08:15:26.154Z,30.60
2018-05-12T08:17:53.737Z,31.13
2018-05-12T08:20:21.289Z,30.83
2018-05-12T08:22:48.837Z,29.53
2018-05-12T08:25:17.200Z,30.20
2018-05-12T08:27:44.746Z,29.20
2018-05-12T08:30:12.341Z,29.10
2018-05-12T08:32:39.901Z,27.60
2018-05-12T08:35:07.458Z,27.80
2018-05-12T08:37:35.037Z,28.30
2018-05-12T08:40:02.605Z,27.67
2018-05-12T08:42:30.961Z,28.60
2018-05-12T08:44:58.529Z,29.10
2018-05-12T08:47:26.082Z,25.37
2018-05-12T08:49:53.651Z,27.30
2018-05-12T08:52:21.199Z,28.60
2018-05-12T08:54:48.781Z,28.20
2018-05-12T08:57:17.107Z,23.67
2018-05-12T08:59:44.660Z,24.03
2018-05-12T09:02:12.230Z,23.60
2018-05-12T09:04:41.710Z,22.00
2018-05-12T09:07:10.212Z,23.20
2018-05-12T09:09:37.711Z,21.47
2018-05-12T09:12:05.260Z,24.37
2018-05-12T09:14:32.837Z,24.37
2018-05-12T09:17:01.167Z,25.43
2018-05-12T09:19:28.745Z,20.97
2018-05-12T09:21:56.293Z,21.00
2018-05-12T09:24:23.881Z,18.60
2018-05-12T09:27:14.924Z,16.13
2018-05-12T09:29:42.477Z,14.37
2018-05-12T09:32:10.825Z,18.20
2018-05-12T09:34:38.376Z,18.03
2018-05-12T09:37:05.928Z,21.00
2018-05-12T09:39:33.864Z,21.80
2018-05-12T09:42:01.422Z,20.93
2018-05-12T09:44:28.970Z,19.90
2018-05-12T09:49:50.229Z,14.60
2018-05-12T09:52:17.887Z,14.93
2018-05-12T09:54:45.484Z,18.97
2018-05-12T09:57:13.040Z,16.67
2018-05-12T09:59:43.650Z,19.43
2018-05-12T10:02:11.208Z,20.00
2018-05-12T10:04:39.701Z,20.40
2018-05-12T10:07:07.253Z,18.77
2018-05-12T10:09:34.882Z,19.10
2018-05-12T10:12:02.386Z,21.93
2018-05-12T10:14:29.941Z,22.10
2018-05-12T10:16:57.522Z,20.77
2018-05-12T10:19:25.958Z,21.87
2018-05-12T10:21:53.449Z,17.93
2018-05-12T10:24:21.854Z,18.90
2018-05-12T10:26:50.162Z,18.63
2018-05-12T10:29:17.728Z,17.97
2018-05-12T10:31:45.640Z,18.73
2018-05-12T10:34:13.208Z,18.50
2018-05-12T10:36:41.198Z,19.00
2018-05-12T10:39:09.278Z,19.40
2018-05-12T10:41:38.068Z,18.80
2018-05-12T10:44:05.648Z,17.47
2018-05-12T10:46:33.189Z,18.27
2018-05-12T10:49:01.131Z,16.37
2018-05-12T10:51:28.877Z,18.63
2018-05-12T10:53:56.547Z,16.57
2018-05-12T10:56:24.094Z,14.40
2018-05-12T10:58:51.677Z,16.80
2018-05-12T11:01:22.567Z,17.10
2018-05-12T11:03:50.154Z,16.17
2018-05-12T11:06:17.738Z,16.37
2018-05-12T11:08:46.071Z,15.40
2018-05-12T11:11:13.632Z,14.40
2018-05-12T11:13:41.218Z,15.50
2018-05-12T11:16:08.912Z,15.03
2018-05-12T11:18:37.146Z,16.10
2018-05-12T11:21:04.693Z,16.80
2018-05-12T11:23:32.691Z,15.47
2018-05-12T11:26:01.931Z,11.83
2018-05-12T11:28:29.505Z,13.00
2018-05-12T11:30:57.085Z,12.67
2018-05-12T11:33:24.643Z,12.63
2018-05-12T11:35:52.200Z,10.70
2018-05-12T11:38:19.786Z,12.83
2018-05-12T11:40:48.114Z,10.60
2018-05-12T11:43:17.642Z,11.50
2018-05-12T11:45:45.247Z,11.23
2018-05-12T11:48:12.804Z,11.30
2018-05-12T11:50:41.350Z,10.53
2018-05-12T11:53:08.895Z,9.93
2018-05-12T11:55:36.465Z,10.27
2018-05-12T11:58:04.087Z,9.07
2018-05-12T12:00:37.877Z,11.67
2018-05-12T12:03:19.672Z,10.57
2018-05-12T12:05:47.254Z,11.87
2018-05-12T12:08:35.332Z,12.17
2018-05-12T12:11:04.160Z,10.00
2018-05-12T12:13:31.719Z,9.97
2018-05-12T12:15:59.267Z,10.63
2018-05-12T12:18:27.618Z,10.23
2018-05-12T12:20:55.181Z,9.17
2018-05-12T12:23:26.727Z,8.83
2018-05-12T12:25:54.277Z,8.20
2018-05-12T12:28:21.816Z,8.23
2018-05-12T12:30:49.385Z,8.53
2018-05-12T12:33:16.971Z,8.60
2018-05-12T12:35:44.539Z,7.37
2018-05-12T12:38:12.860Z,7.10
2018-05-12T12:40:40.403Z,6.67
2018-05-12T12:43:08.009Z,6.40
2018-05-12T12:45:35.596Z,6.17
2018-05-12T12:48:03.942Z,7.13
2018-05-12T12:50:31.494Z,7.00
2018-05-12T12:52:59.057Z,6.83
2018-05-12T12:55:26.653Z,6.60
2018-05-12T12:57:55.041Z,7.10
2018-05-12T13:00:23.374Z,6.93
2018-05-12T13:02:50.937Z,6.60
2018-05-12T13:05:18.514Z,6.40
2018-05-12T13:07:46.089Z,6.50
2018-05-12T13:10:14.406Z,6.93
2018-05-12T13:12:41.977Z,6.67
2018-05-12T13:15:09.521Z,6.40
2018-05-12T13:17:37.063Z,6.47
2018-05-12T13:20:04.638Z,7.23
2018-05-12T13:22:32.193Z,7.00
2018-05-12T13:24:59.752Z,6.13
2018-05-12T13:27:30.639Z,6.30
2018-05-12T13:29:58.188Z,5.97
2018-05-12T13:32:26.025Z,5.77
2018-05-12T13:34:54.396Z,5.83
2018-05-12T13:37:21.957Z,5.80
2018-05-12T13:39:53.306Z,5.97
2018-05-12T13:42:20.875Z,6.30
2018-05-12T13:44:49.228Z,6.37
2018-05-12T13:47:20.429Z,6.30
2018-05-12T13:49:48.002Z,5.83
2018-05-12T13:52:15.565Z,6.30
2018-05-12T13:54:43.115Z,5.20
2018-05-12T13:57:10.679Z,5.67
2018-05-12T13:59:38.229Z,5.93
2018-05-12T14:02:05.814Z,6.07
2018-05-12T14:04:34.117Z,6.10
2018-05-12T14:07:01.658Z,5.67
2018-05-12T14:09:30.011Z,5.70
2018-05-12T14:12:03.513Z,4.83
2018-05-12T14:14:32.017Z,5.57
2018-05-12T14:17:00.329Z,5.40
2018-05-12T14:19:27.877Z,5.40
2018-05-12T14:21:57.449Z,5.73
2018-05-12T14:24:25.929Z,6.60
2018-05-12T14:26:55.208Z,6.47
2018-05-12T14:29:22.789Z,6.13
2018-05-12T14:31:53.065Z,5.90
2018-05-12T14:34:20.693Z,5.80
2018-05-12T14:36:48.362Z,5.53
2018-05-12T14:39:15.970Z,6.30
2018-05-12T14:41:43.520Z,5.70
2018-05-12T14:44:11.181Z,6.00
2018-05-12T14:46:38.799Z,5.93
2018-05-12T14:49:06.398Z,5.40
2018-05-12T14:51:34.007Z,5.40
2018-05-12T14:54:02.489Z,4.97
2018-05-12T14:56:30.806Z,4.63
2018-05-12T14:58:58.415Z,4.80
2018-05-12T15:01:26.731Z,5.10
2018-05-12T15:03:54.295Z,5.80
2018-05-12T15:06:21.853Z,5.50
2018-05-12T15:08:52.390Z,5.30
2018-05-12T15:11:20.075Z,5.57
2018-05-12T15:13:47.617Z,5.67
2018-05-12T15:16:15.190Z,5.60
2018-05-12T15:18:42.746Z,5.10
2018-05-12T15:21:10.293Z,5.47
2018-05-12T15:23:40.255Z,5.17
2018-05-12T15:26:08.701Z,6.37
2018-05-12T15:28:36.356Z,6.27
2018-05-12T15:31:09.671Z,6.67
2018-05-12T15:33:37.238Z,6.57
2018-05-12T15:36:04.787Z,5.50
2018-05-12T15:38:32.329Z,6.70
2018-05-12T15:40:59.893Z,6.57
2018-05-12T15:43:27.443Z,7.13
2018-05-12T15:45:55.014Z,6.80
2018-05-12T15:48:22.557Z,6.30
2018-05-12T15:50:51.065Z,7.53
2018-05-12T15:53:18.641Z,7.27
2018-05-12T15:55:46.987Z,7.23
2018-05-12T15:58:15.580Z,7.90
2018-05-12T16:00:44.058Z,7.40
2018-05-12T16:03:11.741Z,6.50
2018-05-12T16:05:39.229Z,7.10
2018-05-12T16:08:11.408Z,7.17
2018-05-12T16:10:38.984Z,7.50
2018-05-12T16:13:06.527Z,7.37
2018-05-12T16:15:34.073Z,7.17
2018-05-12T16:18:01.718Z,7.17
2018-05-12T16:20:30.151Z,7.57
2018-05-12T16:22:58.442Z,7.00
2018-05-12T16:25:25.990Z,6.50
2018-05-12T16:27:53.543Z,6.50
2018-05-12T16:30:21.127Z,6.27
2018-05-12T16:32:48.673Z,6.40
2018-05-12T16:35:16.284Z,6.90
2018-05-12T16:37:43.912Z,6.27
2018-05-12T16:40:11.454Z,6.43
2018-05-12T16:42:39.014Z,6.77
2018-05-12T16:45:06.570Z,5.47
2018-05-12T16:47:34.153Z,5.53
2018-05-12T16:50:01.713Z,6.23
2018-05-12T16:52:29.270Z,5.30
2018-05-12T16:54:56.861Z,6.10
2018-05-12T16:57:24.411Z,5.10
2018-05-12T16:59:52.753Z,6.00
2018-05-12T17:02:20.301Z,7.00
2018-05-12T17:04:47.847Z,6.80
2018-05-12T17:07:15.417Z,6.03
2018-05-12T17:09:43.012Z,5.47
2018-05-12T17:12:10.593Z,5.70
2018-05-12T17:14:38.138Z,5.87
2018-05-12T17:17:06.441Z,5.23
2018-05-12T17:19:34.016Z,5.43
2018-05-12T17:22:01.555Z,7.50
2018-05-12T17:24:29.134Z,6.27
2018-05-12T17:26:56.679Z,6.60
2018-05-12T17:29:24.219Z,5.40
2018-05-12T17:31:52.554Z,9.43
2018-05-12T17:34:20.108Z,7.00
2018-05-12T17:36:47.678Z,7.70
2018-05-12T17:39:15.272Z,7.07
2018-05-12T17:41:43.574Z,6.63
2018-05-12T17:44:11.253Z,5.80
2018-05-12T17:46:38.816Z,5.13
2018-05-12T17:49:06.381Z,6.00
2018-05-12T17:51:33.918Z,6.43
2018-05-12T17:54:01.458Z,7.80
2018-05-12T17:56:29.033Z,6.33
2018-05-12T17:58:56.575Z,6.00
2018-05-12T18:01:24.145Z,5.10
2018-05-12T18:03:51.698Z,6.80
2018-05-12T18:06:19.255Z,5.67
2018-05-12T18:08:46.876Z,6.10
2018-05-12T18:11:14.426Z,5.70
2018-05-12T18:13:41.997Z,6.00
2018-05-12T18:16:09.536Z,5.70
2018-05-12T18:18:37.083Z,7.70
2018-05-12T18:21:10.556Z,8.50
2018-05-12T18:23:38.120Z,7.27
2018-05-12T18:26:05.694Z,7.70
2018-05-12T18:28:33.252Z,7.90
2018-05-12T18:31:00.804Z,7.27
2018-05-12T18:33:28.373Z,7.03
2018-05-12T18:35:55.914Z,7.37
2018-05-12T18:38:23.489Z,12.60
2018-05-12T18:40:51.044Z,15.10
2018-05-12T18:43:18.606Z,11.10
2018-05-12T18:45:46.192Z,14.90
2018-05-12T18:48:13.746Z,17.17
2018-05-12T18:50:41.335Z,12.20
2018-05-12T18:53:09.673Z,15.90
2018-05-12T18:55:37.227Z,10.73
2018-05-12T18:58:04.825Z,10.37
2018-05-12T19:00:32.366Z,9.47
2018-05-12T19:02:59.934Z,8.50
2018-05-12T19:05:27.488Z,10.33
2018-05-12T19:07:55.051Z,12.50
2018-05-12T19:10:22.643Z,11.60
2018-05-12T19:12:50.986Z,11.63
2018-05-12T19:15:25.955Z,17.23
2018-05-12T19:17:53.457Z,11.70
2018-05-12T19:20:21.018Z,11.50
2018-05-12T19:22:48.585Z,11.23
2018-05-12T19:25:16.152Z,10.73
2018-05-12T19:27:43.738Z,10.70
2018-05-12T19:30:11.313Z,10.33
2018-05-12T19:32:39.693Z,9.90
2018-05-12T19:35:07.239Z,9.20
2018-05-12T19:37:35.564Z,8.90
2018-05-12T19:40:03.152Z,8.90
2018-05-12T19:42:30.698Z,9.43
2018-05-12T19:44:58.244Z,9.90
2018-05-12T19:47:25.818Z,10.00
2018-05-12T19:49:53.380Z,10.70
2018-05-12T19:52:20.966Z,11.20
2018-05-12T19:54:49.292Z,13.40
2018-05-12T19:57:17.620Z,11.47
2018-05-12T19:59:45.199Z,12.10
2018-05-12T20:02:13.518Z,12.83
2018-05-12T20:04:41.119Z,13.13
2018-05-12T20:07:08.665Z,12.33
2018-05-12T20:09:36.221Z,11.10
2018-05-12T20:12:03.790Z,11.30
2018-05-12T20:14:31.342Z,11.60
2018-05-12T20:16:58.922Z,12.00
2018-05-12T20:19:27.238Z,12.80
2018-05-12T20:21:54.804Z,12.27
2018-05-12T20:24:22.386Z,12.27
2018-05-12T20:26:49.942Z,11.13
2018-05-12T20:29:17.531Z,11.20
2018-05-12T20:31:45.081Z,11.20
2018-05-12T20:34:12.636Z,10.47
2018-05-12T20:36:40.404Z,9.80
2018-05-12T20:39:17.857Z,10.10
2018-05-12T20:41:48.949Z,10.17
2018-05-12T20:44:22.314Z,10.53
2018-05-12T20:46:54.282Z,10.87
2018-05-12T20:49:21.839Z,11.50
2018-05-12T20:51:49.396Z,12.40
2018-05-12T20:54:16.962Z,11.57
2018-05-12T20:56:48.495Z,12.67
2018-05-12T20:59:16.946Z,14.50
2018-05-12T21:01:44.618Z,12.87
2018-05-12T21:04:13.103Z,13.80
2018-05-12T21:06:40.682Z,13.13
2018-05-12T21:09:09.910Z,13.10
2018-05-12T21:11:38.850Z,12.13
2018-05-12T21:14:07.365Z,13.70
2018-05-12T21:16:34.919Z,13.10
2018-05-12T21:19:07.174Z,15.47
2018-05-12T21:21:44.521Z,12.40
2018-05-12T21:24:12.857Z,16.60
2018-05-12T21:26:40.405Z,13.00
2018-05-12T21:29:29.880Z,12.37
2018-05-12T21:31:57.382Z,10.93
2018-05-12T21:34:25.728Z,11.87
2018-05-12T21:36:53.321Z,10.60
2018-05-12T21:39:21.636Z,12.20
2018-05-12T21:41:49.216Z,10.63
2018-05-12T21:44:16.760Z,8.57
2018-05-12T21:46:47.432Z,7.73
2018-05-12T21:49:19.990Z,10.33
2018-05-12T21:51:47.578Z,7.80
2018-05-12T21:54:15.127Z,7.40
2018-05-12T21:56:42.686Z,7.20
2018-05-12T21:59:10.261Z,6.70
2018-05-12T22:01:38.579Z,6.53
2018-05-12T22:04:07.316Z,6.80
2018-05-12T22:06:34.920Z,6.33
2018-05-12T22:09:02.461Z,7.00
2018-05-12T22:11:30.893Z,7.10
2018-05-12T22:13:58.433Z,6.70
2018-05-12T22:16:26.002Z,7.20
2018-05-12T22:18:53.573Z,6.63
2018-05-12T22:21:21.181Z,6.60
2018-05-12T22:23:48.763Z,6.37
2018-05-12T22:26:17.463Z,6.70
2018-05-12T22:28:45.059Z,7.20
2018-05-12T22:31:12.608Z,7.27
2018-05-12T22:33:40.158Z,7.80
2018-05-12T22:36:07.717Z,7.93
2018-05-12T22:38:35.258Z,7.13
2018-05-12T22:41:02.828Z,7.00
2018-05-12T22:43:30.613Z,7.67
2018-05-12T22:45:58.170Z,7.53
2018-05-12T22:48:25.726Z,7.27
2018-05-12T22:50:53.285Z,8.60
2018-05-12T22:53:20.846Z,8.00
2018-05-12T22:55:48.400Z,8.30
2018-05-12T22:58:15.945Z,7.90
2018-05-12T23:00:43.530Z,8.77
2018-05-12T23:03:11.084Z,8.77
2018-05-12T23:05:38.680Z,8.60
2018-05-12T23:11:00.569Z,8.63
2018-05-12T23:13:28.120Z,8.53
2018-05-12T23:15:55.712Z,8.00
2018-05-12T23:18:23.378Z,8.10
2018-05-12T23:20:50.875Z,8.73
2018-05-12T23:23:18.521Z,8.90
2018-05-12T23:25:46.666Z,8.30
2018-05-12T23:28:14.238Z,8.73
2018-05-12T23:30:41.789Z,9.73
2018-05-12T23:33:09.338Z,9.50
2018-05-12T23:35:36.931Z,9.07
2018-05-12T23:38:05.244Z,9.20
2018-05-12T23:40:32.819Z,9.87
2018-05-12T23:43:00.371Z,9.50
2018-05-12T23:45:27.921Z,9.20
2018-05-12T23:47:55.492Z,9.20
2018-05-12T23:50:23.033Z,10.23
2018-05-12T23:52:50.714Z,11.00
2018-05-12T23:55:18.329Z,10.40
2018-05-12T23:57:46.642Z,11.00
